Time;durP1;ratioP1;P1;durP2;ratioP2;P2;SDS_P1;SDS_P2;PMS_P1;PMS_P2;Temp;Humidity;BMP_temperature;BMP_pressure;BME280_temperature;BME280_humidity;BME280_pressure;Samples;Min_cycle;Max_cycle;Signal;HPM_P1;HPM_P2
2022/11/13 00:01:17;;;;;;;11.55;8.73;;;;;13.60;102558.00;;;;5061604;28;20680;-76
2022/11/13 00:03:45;;;;;;;14.15;9.57;;;;;13.60;102556.00;;;;5055987;28;20206;-77
2022/11/13 00:06:13;;;;;;;10.70;8.45;;;;;13.60;102549.00;;;;5054703;28;20199;-77
2022/11/13 00:08:41;;;;;;;11.63;7.82;;;;;13.60;102550.00;;;;5054312;28;20191;-77
2022/11/13 00:11:11;;;;;;;9.95;8.68;;;;;13.50;102554.00;;;;5054975;28;20203;-76
2022/11/13 00:13:38;;;;;;;13.05;8.15;;;;;13.50;102544.00;;;;5055921;28;20195;-76
2022/11/13 00:16:09;;;;;;;12.07;8.43;;;;;13.50;102546.00;;;;5053386;28;20191;-77
2022/11/13 00:18:38;;;;;;;12.20;8.18;;;;;13.50;102535.00;;;;5057092;28;20196;-76
2022/11/13 00:21:06;;;;;;;9.15;7.85;;;;;13.50;102530.00;;;;5060955;28;20215;-76
2022/11/13 00:23:36;;;;;;;8.50;7.63;;;;;13.40;102528.00;;;;5049708;28;20207;-77
2022/11/13 00:26:07;;;;;;;10.30;6.32;;;;;13.40;102534.00;;;;5057153;28;20206;-76
2022/11/13 00:28:35;;;;;;;8.85;7.00;;;;;13.40;102525.00;;;;5060149;28;20214;-77
2022/11/13 00:31:04;;;;;;;8.27;6.80;;;;;13.40;102525.00;;;;5068985;28;20214;-77
2022/11/13 00:33:32;;;;;;;7.65;6.55;;;;;13.40;102520.00;;;;5070424;28;20203;-77
2022/11/13 00:36:04;;;;;;;8.05;6.15;;;;;13.30;102521.00;;;;5049172;28;20235;-77
2022/11/13 00:38:32;;;;;;;7.68;5.63;;;;;13.30;102511.00;;;;5050075;28;20211;-77
2022/11/13 00:41:00;;;;;;;5.85;5.10;;;;;13.30;102516.00;;;;5048337;28;20234;-77
2022/11/13 00:43:28;;;;;;;6.50;5.60;;;;;13.30;102510.00;;;;5051165;28;20674;-76
2022/11/13 00:45:56;;;;;;;6.72;5.93;;;;;13.30;102508.00;;;;5049636;28;20699;-76
2022/11/13 00:48:23;;;;;;;6.43;5.50;;;;;13.30;102507.00;;;;5052848;28;20662;-76
2022/11/13 00:50:50;;;;;;;7.85;6.13;;;;;13.20;102500.00;;;;5060059;28;20253;-76
2022/11/13 00:53:19;;;;;;;8.05;6.00;;;;;13.20;102504.00;;;;5054831;28;20668;-76
2022/11/13 00:55:47;;;;;;;6.13;5.28;;;;;13.20;102506.00;;;;5049594;28;20585;-76
2022/11/13 00:58:15;;;;;;;6.70;5.50;;;;;13.20;102500.00;;;;5063855;28;20209;-76
2022/11/13 01:00:44;;;;;;;7.75;6.05;;;;;13.20;102499.00;;;;5063344;28;20239;-76
2022/11/13 01:03:12;;;;;;;9.00;6.22;;;;;13.20;102489.00;;;;5063557;28;20203;-76
2022/11/13 01:05:41;;;;;;;6.78;5.35;;;;;13.20;102490.00;;;;5055271;28;20214;-76
2022/11/13 01:08:09;;;;;;;9.48;6.40;;;;;13.20;102481.00;;;;5052996;28;20198;-76
2022/11/13 01:10:41;;;;;;;7.85;6.22;;;;;13.10;102479.00;;;;5050009;28;20212;-76
2022/11/13 01:13:08;;;;;;;11.23;6.50;;;;;13.20;102484.00;;;;5049982;28;20211;-76
2022/11/13 01:15:38;;;;;;;8.60;6.22;;;;;13.20;102480.00;;;;5060374;28;20206;-76
2022/11/13 01:18:05;;;;;;;8.15;6.07;;;;;13.20;102480.00;;;;5052836;28;20199;-77
2022/11/13 01:20:33;;;;;;;9.55;6.32;;;;;13.20;102483.00;;;;5062605;28;20231;-76
2022/11/13 01:23:00;;;;;;;8.50;6.38;;;;;13.10;102482.00;;;;5049786;28;20553;-77
2022/11/13 01:25:28;;;;;;;8.63;6.20;;;;;13.10;102489.00;;;;5047986;28;20203;-77
2022/11/13 01:27:56;;;;;;;7.93;6.78;;;;;13.10;102482.00;;;;5056552;28;20202;-77
2022/11/13 01:30:24;;;;;;;7.93;6.07;;;;;13.10;102487.00;;;;5050964;28;20204;-77
2022/11/13 01:32:51;;;;;;;10.57;6.30;;;;;13.10;102487.00;;;;5049113;28;20207;-77
2022/11/13 01:35:18;;;;;;;8.32;6.40;;;;;13.10;102483.00;;;;5067803;28;20234;-77
2022/11/13 01:37:45;;;;;;;8.35;6.55;;;;;13.10;102478.00;;;;5048527;28;20199;-77
2022/11/13 01:40:13;;;;;;;9.75;6.20;;;;;13.10;102475.00;;;;5048264;28;20529;-76
2022/11/13 01:42:41;;;;;;;9.13;7.28;;;;;13.10;102473.00;;;;5065024;28;20672;-77
2022/11/13 01:45:42;;;;;;;8.60;6.53;;;;;12.90;102461.00;;;;5059718;28;20215;-77
2022/11/13 01:48:12;;;;;;;6.47;5.25;;;;;13.00;102463.00;;;;5023752;28;20238;-77
2022/11/13 01:50:39;;;;;;;7.70;5.72;;;;;13.00;102459.00;;;;5047512;28;20676;-77
2022/11/13 01:53:08;;;;;;;8.10;6.57;;;;;13.00;102460.00;;;;5051061;28;20216;-77
2022/11/13 01:55:35;;;;;;;9.05;6.55;;;;;13.00;102462.00;;;;5047820;28;20218;-77
2022/11/13 01:58:05;;;;;;;7.80;6.15;;;;;13.00;102448.00;;;;5051879;28;20195;-77
2022/11/13 02:00:32;;;;;;;9.65;6.00;;;;;13.00;102438.00;;;;5047245;28;20216;-77
2022/11/13 02:02:59;;;;;;;8.70;6.70;;;;;13.00;102437.00;;;;5053957;28;20195;-77
2022/11/13 02:05:28;;;;;;;9.45;6.63;;;;;13.00;102433.00;;;;5053731;28;20211;-77
2022/11/13 02:07:55;;;;;;;8.43;5.72;;;;;12.90;102425.00;;;;5051667;28;20206;-77
2022/11/13 02:10:23;;;;;;;9.48;6.90;;;;;12.90;102424.00;;;;5049363;28;20573;-77
2022/11/13 02:12:52;;;;;;;8.77;5.80;;;;;12.90;102420.00;;;;5048576;28;20199;-77
2022/11/13 02:15:22;;;;;;;8.50;6.07;;;;;12.90;102418.00;;;;5061192;28;20195;-77
2022/11/13 02:17:52;;;;;;;7.25;6.25;;;;;12.90;102417.00;;;;5049898;28;20196;-77
2022/11/13 02:20:26;;;;;;;7.35;5.75;;;;;12.90;102415.00;;;;5052788;28;20223;-77
2022/11/13 02:23:01;;;;;;;8.70;6.00;;;;;12.80;102414.00;;;;5048070;28;20657;-77
2022/11/13 02:25:31;;;;;;;7.15;5.68;;;;;12.80;102397.00;;;;5057528;28;20280;-77
2022/11/13 02:27:59;;;;;;;9.13;6.20;;;;;12.80;102405.00;;;;5062149;28;20198;-77
2022/11/13 02:30:30;;;;;;;10.02;6.13;;;;;12.80;102404.00;;;;5047846;28;20208;-77
2022/11/13 02:32:59;;;;;;;7.25;5.15;;;;;12.80;102400.00;;;;5055446;28;20206;-77
2022/11/13 02:35:29;;;;;;;7.60;5.57;;;;;12.80;102401.00;;;;5053929;28;20227;-77
2022/11/13 02:37:58;;;;;;;6.20;5.47;;;;;12.80;102399.00;;;;5047354;28;20919;-77
2022/11/13 02:40:26;;;;;;;8.63;5.30;;;;;12.80;102401.00;;;;5056379;28;20713;-77
2022/11/13 02:42:55;;;;;;;8.38;5.28;;;;;12.80;102395.00;;;;5048849;28;20244;-77
2022/11/13 02:45:22;;;;;;;6.85;5.03;;;;;12.90;102392.00;;;;5047890;28;20270;-77
2022/11/13 02:47:50;;;;;;;6.30;4.93;;;;;12.90;102390.00;;;;5051930;28;20215;-78
2022/11/13 02:50:18;;;;;;;6.38;4.78;;;;;12.90;102386.00;;;;5047712;28;20211;-78
2022/11/13 02:52:45;;;;;;;8.70;5.57;;;;;12.90;102384.00;;;;5054138;28;20202;-77
2022/11/13 02:55:12;;;;;;;7.45;4.85;;;;;12.90;102384.00;;;;5047414;28;20210;-78
2022/11/13 02:57:39;;;;;;;8.52;4.80;;;;;13.00;102376.00;;;;5047494;28;20215;-77
2022/11/13 03:00:10;;;;;;;5.13;4.38;;;;;13.00;102385.00;;;;5047278;28;20225;-78
2022/11/13 03:02:37;;;;;;;6.70;4.80;;;;;13.00;102382.00;;;;5057420;28;20214;-78
2022/11/13 03:05:05;;;;;;;7.07;4.95;;;;;13.00;102370.00;;;;5047583;28;20198;-77
2022/11/13 03:07:32;;;;;;;6.22;5.05;;;;;13.00;102383.00;;;;5048600;28;20210;-78
2022/11/13 03:10:00;;;;;;;4.80;4.30;;;;;13.10;102378.00;;;;5048060;28;20204;-77
2022/11/13 03:12:27;;;;;;;8.48;4.75;;;;;13.10;102382.00;;;;5061182;28;20304;-77
2022/11/13 03:14:54;;;;;;;7.47;5.65;;;;;13.10;102372.00;;;;5048545;28;20204;-77
2022/11/13 03:17:23;;;;;;;5.97;4.60;;;;;13.10;102372.00;;;;5053551;28;20203;-78
2022/11/13 03:19:50;;;;;;;6.85;5.25;;;;;13.10;102371.00;;;;5051980;28;20203;-78
2022/11/13 03:22:17;;;;;;;6.15;4.95;;;;;13.10;102367.00;;;;5048493;28;20206;-77
2022/11/13 03:24:45;;;;;;;5.72;4.45;;;;;13.20;102359.00;;;;5056840;28;20671;-77
2022/11/13 03:27:12;;;;;;;5.63;4.38;;;;;13.20;102360.00;;;;5049674;28;20203;-78
2022/11/13 03:29:39;;;;;;;6.47;4.60;;;;;13.20;102363.00;;;;5061480;28;20207;-77
2022/11/13 03:32:07;;;;;;;6.32;4.70;;;;;13.20;102367.00;;;;5054954;28;20203;-77
2022/11/13 03:34:37;;;;;;;5.22;4.30;;;;;13.20;102369.00;;;;5055425;28;20234;-77
2022/11/13 03:37:04;;;;;;;6.03;4.55;;;;;13.20;102372.00;;;;5046862;28;20685;-77
2022/11/13 03:39:31;;;;;;;5.45;4.50;;;;;13.20;102365.00;;;;5047326;28;20204;-77
2022/11/13 03:41:59;;;;;;;5.53;4.60;;;;;13.20;102369.00;;;;5048101;28;20231;-77
2022/11/13 03:44:26;;;;;;;5.88;4.47;;;;;13.20;102371.00;;;;5063581;28;20218;-77
2022/11/13 03:46:53;;;;;;;6.47;4.65;;;;;13.20;102367.00;;;;5047642;28;20242;-77
2022/11/13 03:49:20;;;;;;;5.40;4.35;;;;;13.20;102367.00;;;;5048085;28;20199;-77
2022/11/13 03:51:49;;;;;;;5.32;4.10;;;;;13.20;102364.00;;;;5050896;28;20206;-77
2022/11/13 03:54:16;;;;;;;6.75;4.57;;;;;13.20;102360.00;;;;5050470;28;20215;-77
2022/11/13 03:56:44;;;;;;;5.90;4.65;;;;;13.20;102357.00;;;;5050702;28;20200;-77
2022/11/13 03:59:11;;;;;;;5.55;4.85;;;;;13.20;102355.00;;;;5061399;28;20199;-77
2022/11/13 04:01:38;;;;;;;5.95;5.10;;;;;13.10;102356.00;;;;5051392;28;20227;-77
2022/11/13 04:04:06;;;;;;;4.78;3.78;;;;;13.10;102359.00;;;;5050056;28;20199;-77
2022/11/13 04:06:33;;;;;;;4.40;3.78;;;;;13.10;102355.00;;;;5050657;28;20203;-77
2022/11/13 04:09:02;;;;;;;4.97;3.90;;;;;13.10;102349.00;;;;5054028;28;20646;-77
2022/11/13 04:11:29;;;;;;;4.30;3.70;;;;;13.10;102346.00;;;;5056161;28;20670;-77
2022/11/13 04:13:56;;;;;;;6.13;4.55;;;;;13.10;102350.00;;;;5054266;28;20199;-77
2022/11/13 04:16:23;;;;;;;4.88;4.00;;;;;13.10;102346.00;;;;5055721;28;20199;-77
2022/11/13 04:18:51;;;;;;;6.07;3.75;;;;;13.10;102344.00;;;;5059144;28;20559;-77
2022/11/13 04:21:18;;;;;;;5.80;3.92;;;;;13.10;102346.00;;;;5049983;28;20709;-77
2022/11/13 04:23:45;;;;;;;5.68;4.35;;;;;13.10;102347.00;;;;5050387;28;20200;-77
2022/11/13 04:26:14;;;;;;;5.30;4.07;;;;;13.00;102350.00;;;;5051125;28;20732;-77
2022/11/13 04:28:41;;;;;;;5.35;3.95;;;;;13.00;102340.00;;;;5051897;28;20207;-77
2022/11/13 04:31:08;;;;;;;3.88;3.50;;;;;13.00;102344.00;;;;5049990;28;20196;-77
2022/11/13 04:33:35;;;;;;;5.60;4.25;;;;;13.00;102344.00;;;;5050738;28;20207;-78
2022/11/13 04:36:03;;;;;;;4.05;3.40;;;;;13.00;102346.00;;;;5058004;28;20236;-78
2022/11/13 04:38:30;;;;;;;5.05;3.72;;;;;13.00;102345.00;;;;5049759;28;20196;-77
2022/11/13 04:43:40;;;;;;;4.18;3.47;;;;;12.90;102344.00;;;;5058096;28;20244;-77
2022/11/13 04:46:07;;;;;;;5.68;3.83;;;;;12.90;102344.00;;;;5059055;28;20226;-77
2022/11/13 04:48:35;;;;;;;4.43;3.60;;;;;12.90;102334.00;;;;5050221;28;20191;-78
2022/11/13 04:51:02;;;;;;;5.78;3.90;;;;;12.90;102342.00;;;;5050546;28;20207;-77
2022/11/13 04:53:29;;;;;;;4.75;3.97;;;;;12.90;102336.00;;;;5049603;28;20577;-77
2022/11/13 04:55:56;;;;;;;4.25;3.65;;;;;12.90;102328.00;;;;5051162;28;20195;-77
2022/11/13 04:58:24;;;;;;;6.93;4.32;;;;;12.80;102332.00;;;;5054776;28;20203;-77
2022/11/13 05:00:52;;;;;;;4.72;3.67;;;;;12.80;102337.00;;;;5056824;28;20307;-78
2022/11/13 05:03:19;;;;;;;5.55;3.90;;;;;12.80;102336.00;;;;5061665;28;20202;-77
2022/11/13 05:05:47;;;;;;;6.22;3.90;;;;;12.70;102327.00;;;;5051070;28;20675;-78
2022/11/13 05:08:14;;;;;;;4.28;3.35;;;;;12.70;102324.00;;;;5051891;28;20208;-77
2022/11/13 05:10:41;;;;;;;5.75;3.50;;;;;12.70;102329.00;;;;5059807;28;20199;-77
2022/11/13 05:13:08;;;;;;;5.35;3.85;;;;;12.70;102317.00;;;;5049704;28;20797;-77
2022/11/13 05:15:36;;;;;;;4.25;3.30;;;;;12.60;102319.00;;;;5052765;28;20198;-77
2022/11/13 05:18:04;;;;;;;5.38;4.25;;;;;12.60;102319.00;;;;5055092;28;20290;-78
2022/11/13 05:20:32;;;;;;;3.97;3.50;;;;;12.60;102318.00;;;;5051511;28;20207;-78
2022/11/13 05:22:59;;;;;;;3.90;3.15;;;;;12.60;102312.00;;;;5070093;28;20214;-78
2022/11/13 05:25:26;;;;;;;4.55;3.15;;;;;12.60;102317.00;;;;5053937;28;20207;-78
2022/11/13 05:27:54;;;;;;;5.85;3.80;;;;;12.60;102311.00;;;;5060933;28;20198;-78
2022/11/13 05:30:21;;;;;;;4.28;3.13;;;;;12.50;102301.00;;;;5053668;28;20207;-77
2022/11/13 05:32:48;;;;;;;5.55;3.17;;;;;12.50;102307.00;;;;5049866;28;20204;-78
2022/11/13 05:35:17;;;;;;;5.53;3.53;;;;;12.50;102297.00;;;;5062743;28;20239;-78
2022/11/13 05:37:44;;;;;;;5.03;3.28;;;;;12.50;102301.00;;;;5054897;28;20195;-78
2022/11/13 05:40:12;;;;;;;4.88;3.40;;;;;12.50;102306.00;;;;5048273;28;20199;-76
2022/11/13 05:42:39;;;;;;;4.13;3.47;;;;;12.50;102297.00;;;;5055374;28;20227;-76
2022/11/13 05:45:08;;;;;;;4.43;3.67;;;;;12.40;102294.00;;;;5059919;28;20219;-77
2022/11/13 05:47:35;;;;;;;4.20;3.25;;;;;12.40;102294.00;;;;5057130;28;20207;-77
2022/11/13 05:50:02;;;;;;;3.65;2.83;;;;;12.40;102291.00;;;;5052496;28;20195;-76
2022/11/13 05:52:31;;;;;;;3.83;3.22;;;;;12.40;102283.00;;;;5067787;28;20202;-76
2022/11/13 05:54:58;;;;;;;5.75;3.10;;;;;12.40;102282.00;;;;5065953;28;20208;-77
2022/11/13 05:57:27;;;;;;;5.43;3.90;;;;;12.40;102285.00;;;;5049968;28;20661;-78
2022/11/13 05:59:54;;;;;;;4.35;2.97;;;;;12.40;102283.00;;;;5052648;28;20195;-79
2022/11/13 06:02:21;;;;;;;3.85;2.95;;;;;12.40;102283.00;;;;5057445;28;20720;-78
2022/11/13 06:04:49;;;;;;;5.22;3.20;;;;;12.40;102275.00;;;;5050466;28;20681;-78
2022/11/13 06:07:16;;;;;;;5.20;3.15;;;;;12.40;102283.00;;;;5049247;28;20249;-76
2022/11/13 06:09:45;;;;;;;3.65;2.92;;;;;12.40;102279.00;;;;5056076;28;20195;-77
2022/11/13 06:12:12;;;;;;;3.05;2.75;;;;;12.40;102273.00;;;;5058007;28;20206;-77
2022/11/13 06:14:39;;;;;;;5.28;3.33;;;;;12.40;102271.00;;;;5056396;28;20211;-77
2022/11/13 06:17:07;;;;;;;3.90;2.75;;;;;12.40;102269.00;;;;5060418;28;20207;-76
2022/11/13 06:19:34;;;;;;;3.90;3.08;;;;;12.40;102262.00;;;;5048986;28;20608;-77
2022/11/13 06:22:01;;;;;;;3.65;2.90;;;;;12.40;102268.00;;;;5048674;28;20212;-76
2022/11/13 06:24:29;;;;;;;4.63;3.45;;;;;12.40;102260.00;;;;5048314;28;20195;-76
2022/11/13 06:26:57;;;;;;;4.95;3.50;;;;;12.40;102258.00;;;;5066280;28;20205;-78
2022/11/13 06:29:27;;;;;;;5.93;3.42;;;;;12.40;102256.00;;;;5048822;28;20573;-77
2022/11/13 06:31:54;;;;;;;4.80;3.08;;;;;12.40;102258.00;;;;5054762;28;20203;-77
2022/11/13 06:34:22;;;;;;;4.45;3.08;;;;;12.40;102262.00;;;;5058998;28;20586;-78
2022/11/13 06:36:49;;;;;;;5.47;3.20;;;;;12.40;102263.00;;;;5058232;28;20241;-77
2022/11/13 06:39:16;;;;;;;3.67;3.00;;;;;12.40;102265.00;;;;5067670;28;20205;-77
2022/11/13 06:41:44;;;;;;;3.60;2.83;;;;;12.40;102256.00;;;;5069172;28;20227;-77
2022/11/13 06:44:12;;;;;;;4.28;2.80;;;;;12.30;102261.00;;;;5067996;28;20680;-77
2022/11/13 06:46:40;;;;;;;6.07;3.58;;;;;12.30;102254.00;;;;5057601;28;20226;-77
2022/11/13 06:49:07;;;;;;;6.15;3.60;;;;;12.30;102250.00;;;;5052729;28;20273;-78
2022/11/13 06:51:34;;;;;;;4.50;3.40;;;;;12.30;102243.00;;;;5055713;28;20210;-77
2022/11/13 06:54:02;;;;;;;6.50;3.75;;;;;12.30;102244.00;;;;5058810;28;20202;-78
2022/11/13 06:56:29;;;;;;;10.05;4.07;;;;;12.30;102240.00;;;;5047816;28;20222;-77
2022/11/13 06:58:56;;;;;;;4.88;3.97;;;;;12.30;102243.00;;;;5051817;28;20233;-75
2022/11/13 07:01:26;;;;;;;3.90;3.38;;;;;12.20;102239.00;;;;5049053;28;20221;-76
2022/11/13 07:03:54;;;;;;;4.93;3.72;;;;;12.30;102242.00;;;;5053253;28;20619;-75
2022/11/13 07:06:23;;;;;;;5.50;4.07;;;;;12.20;102240.00;;;;5049355;28;20195;-76
2022/11/13 07:08:52;;;;;;;7.03;4.50;;;;;12.20;102245.00;;;;5059721;28;20203;-76
2022/11/13 07:11:21;;;;;;;4.47;3.67;;;;;12.20;102243.00;;;;5048705;28;20202;-76
2022/11/13 07:13:49;;;;;;;5.28;3.55;;;;;12.20;102246.00;;;;5047877;28;20203;-77
2022/11/13 07:16:17;;;;;;;5.97;3.58;;;;;12.20;102247.00;;;;5047683;28;20216;-76
2022/11/13 07:18:50;;;;;;;5.28;3.80;;;;;12.20;102251.00;;;;5047594;28;20199;-76
2022/11/13 07:21:18;;;;;;;5.93;4.25;;;;;12.20;102245.00;;;;5060679;28;20296;-76
2022/11/13 07:23:47;;;;;;;8.30;4.40;;;;;12.20;102246.00;;;;5050405;28;20199;-76
2022/11/13 07:26:14;;;;;;;8.07;4.55;;;;;12.20;102243.00;;;;5052185;28;20230;-76
2022/11/13 07:28:42;;;;;;;6.97;4.63;;;;;12.20;102238.00;;;;5051709;28;20203;-76
2022/11/13 07:31:11;;;;;;;8.20;4.35;;;;;12.20;102242.00;;;;5052473;28;20198;-76
2022/11/13 07:33:39;;;;;;;6.25;4.35;;;;;12.20;102238.00;;;;5062753;28;20214;-76
2022/11/13 07:36:08;;;;;;;5.18;4.45;;;;;12.20;102228.00;;;;5071236;28;20222;-76
2022/11/13 07:38:36;;;;;;;14.82;4.85;;;;;12.20;102235.00;;;;5051975;28;20201;-76
2022/11/13 07:41:04;;;;;;;6.82;4.22;;;;;12.20;102233.00;;;;5052697;28;20207;-76
2022/11/13 07:43:31;;;;;;;6.00;3.83;;;;;12.30;102231.00;;;;5055713;28;20546;-75
2022/11/13 07:45:59;;;;;;;5.65;4.53;;;;;12.30;102230.00;;;;5056311;28;20211;-76
2022/11/13 07:48:27;;;;;;;5.15;4.40;;;;;12.30;102231.00;;;;5053316;28;20348;-76
2022/11/13 07:50:54;;;;;;;6.63;4.63;;;;;12.30;102229.00;;;;5053268;28;20203;-76
2022/11/13 07:53:23;;;;;;;6.03;4.60;;;;;12.30;102237.00;;;;5055000;28;20200;-76
2022/11/13 07:55:50;;;;;;;5.72;4.82;;;;;12.40;102230.00;;;;5056688;28;20678;-77
2022/11/13 07:58:18;;;;;;;5.70;4.55;;;;;12.40;102229.00;;;;5051843;28;20203;-77
2022/11/13 08:00:45;;;;;;;5.57;4.35;;;;;12.50;102223.00;;;;5055335;28;20191;-76
2022/11/13 08:03:15;;;;;;;5.72;4.65;;;;;12.50;102226.00;;;;5060401;28;20230;-77
2022/11/13 08:05:43;;;;;;;7.07;5.53;;;;;12.50;102227.00;;;;5055901;28;20199;-77
2022/11/13 08:08:12;;;;;;;6.20;5.05;;;;;12.60;102224.00;;;;5052016;28;20196;-77
2022/11/13 08:10:41;;;;;;;5.63;4.32;;;;;12.60;102223.00;;;;5055432;28;20195;-77
2022/11/13 08:13:10;;;;;;;5.88;4.82;;;;;12.60;102225.00;;;;5061216;28;20206;-77
2022/11/13 08:15:38;;;;;;;6.57;5.38;;;;;12.70;102224.00;;;;5056014;28;20195;-79
2022/11/13 08:18:06;;;;;;;9.25;4.90;;;;;12.70;102224.00;;;;5056004;28;20254;-76
2022/11/13 08:20:34;;;;;;;7.35;5.57;;;;;12.80;102226.00;;;;5057079;28;20616;-77
2022/11/13 08:23:03;;;;;;;7.30;5.70;;;;;12.80;102222.00;;;;5057174;28;20512;-78
2022/11/13 08:25:32;;;;;;;7.25;5.35;;;;;12.90;102221.00;;;;5054844;28;20231;-77
2022/11/13 08:28:01;;;;;;;8.55;6.40;;;;;12.90;102218.00;;;;5057975;28;20720;-77
2022/11/13 08:30:29;;;;;;;8.73;6.93;;;;;13.00;102214.00;;;;5058088;28;20202;-77
2022/11/13 08:32:56;;;;;;;8.18;6.20;;;;;13.00;102208.00;;;;5059382;28;20297;-77
2022/11/13 08:35:24;;;;;;;9.95;6.97;;;;;13.10;102209.00;;;;5060029;28;20241;-77
2022/11/13 08:37:51;;;;;;;10.85;7.32;;;;;13.10;102212.00;;;;5060119;28;20206;-79
2022/11/13 08:40:18;;;;;;;11.60;8.60;;;;;13.20;102211.00;;;;5058405;28;20203;-78
2022/11/13 08:42:46;;;;;;;10.75;7.95;;;;;13.20;102210.00;;;;5057241;28;20296;-78
2022/11/13 08:45:14;;;;;;;9.40;6.78;;;;;13.30;102213.00;;;;5059477;28;20228;-78
2022/11/13 08:47:42;;;;;;;9.05;7.28;;;;;13.30;102208.00;;;;5062064;28;20196;-78
2022/11/13 08:50:09;;;;;;;10.20;7.30;;;;;13.40;102205.00;;;;5050616;28;20215;-78
2022/11/13 08:52:37;;;;;;;10.82;7.82;;;;;13.50;102199.00;;;;5049444;28;20542;-78
2022/11/13 08:55:05;;;;;;;9.45;6.78;;;;;13.50;102199.00;;;;5052182;28;20572;-78
2022/11/13 08:57:32;;;;;;;9.45;6.30;;;;;13.60;102196.00;;;;5051640;28;20203;-78
2022/11/13 09:00:00;;;;;;;8.13;6.53;;;;;13.60;102198.00;;;;5060597;28;20203;-78
2022/11/13 09:02:29;;;;;;;8.13;5.80;;;;;13.70;102197.00;;;;5050140;28;20223;-77
2022/11/13 09:04:56;;;;;;;7.05;4.88;;;;;13.80;102205.00;;;;5050680;28;20566;-77
2022/11/13 09:07:23;;;;;;;7.55;5.43;;;;;13.90;102203.00;;;;5049844;28;20611;-77
2022/11/13 09:09:50;;;;;;;6.88;5.57;;;;;14.00;102207.00;;;;5052249;28;20211;-76
2022/11/13 09:12:18;;;;;;;5.80;5.20;;;;;14.00;102211.00;;;;5057351;28;20203;-76
2022/11/13 09:14:45;;;;;;;8.38;5.75;;;;;14.10;102201.00;;;;5059337;28;20665;-76
2022/11/13 09:17:12;;;;;;;6.95;6.07;;;;;14.20;102201.00;;;;5059029;28;20210;-76
2022/11/13 09:19:41;;;;;;;5.90;4.95;;;;;14.30;102201.00;;;;5052221;28;20199;-76
2022/11/13 09:22:08;;;;;;;6.13;5.40;;;;;14.40;102199.00;;;;5057915;28;20218;-76
2022/11/13 09:24:36;;;;;;;6.07;5.28;;;;;14.40;102199.00;;;;5068923;28;20923;-76
2022/11/13 09:27:03;;;;;;;5.65;5.10;;;;;14.50;102196.00;;;;5053728;28;20200;-75
2022/11/13 09:29:30;;;;;;;7.15;4.85;;;;;14.60;102199.00;;;;5056738;28;20214;-75
2022/11/13 09:31:58;;;;;;;5.43;4.80;;;;;14.70;102199.00;;;;5054196;28;20206;-75
2022/11/13 09:34:26;;;;;;;5.60;4.80;;;;;14.80;102199.00;;;;5069365;28;20214;-76
2022/11/13 09:36:55;;;;;;;6.68;4.55;;;;;14.80;102212.00;;;;5068301;28;20253;-75
2022/11/13 09:39:22;;;;;;;7.25;4.72;;;;;14.90;102195.00;;;;5061028;28;20201;-75
2022/11/13 09:41:55;;;;;;;5.90;4.80;;;;;15.00;102205.00;;;;5056191;28;20195;-75
2022/11/13 09:44:30;;;;;;;6.22;4.57;;;;;15.10;102203.00;;;;5069322;28;20207;-75
2022/11/13 09:47:06;;;;;;;4.85;4.35;;;;;15.20;102199.00;;;;5049856;28;20215;-75
2022/11/13 09:49:37;;;;;;;7.97;4.72;;;;;15.30;102202.00;;;;5053326;28;20208;-75
2022/11/13 09:52:13;;;;;;;5.63;4.63;;;;;15.40;102198.00;;;;5066487;28;20199;-75
2022/11/13 09:54:40;;;;;;;6.82;4.65;;;;;15.50;102193.00;;;;5069584;28;20210;-76
2022/11/13 09:57:17;;;;;;;7.10;5.05;;;;;15.60;102195.00;;;;5067574;28;20202;-75
2022/11/13 09:59:52;;;;;;;5.65;4.70;;;;;15.70;102193.00;;;;5060655;28;20205;-76
2022/11/13 10:02:25;;;;;;;5.50;4.85;;;;;15.90;102200.00;;;;5049598;28;20218;-76
2022/11/13 10:04:59;;;;;;;5.28;4.32;;;;;16.00;102191.00;;;;5061574;28;20202;-76
2022/11/13 10:07:39;;;;;;;4.93;4.32;;;;;16.10;102196.00;;;;5062733;28;20601;-77
2022/11/13 10:10:24;;;;;;;6.05;4.43;;;;;16.20;102187.00;;;;5064273;28;20203;-76
2022/11/13 10:12:54;;;;;;;5.45;3.85;;;;;16.40;102184.00;;;;5058955;28;20665;-77
2022/11/13 10:15:21;;;;;;;4.03;3.47;;;;;16.60;102189.00;;;;5048412;28;20200;-76
2022/11/13 10:17:52;;;;;;;4.78;3.83;;;;;16.70;102181.00;;;;5050028;28;20200;-79
2022/11/13 10:20:23;;;;;;;3.95;2.92;;;;;16.80;102179.00;;;;5050193;28;20729;-77
2022/11/13 10:22:55;;;;;;;6.07;3.35;;;;;16.90;102167.00;;;;5052085;28;20238;-77
2022/11/13 10:25:28;;;;;;;4.05;3.42;;;;;17.00;102174.00;;;;5064830;28;20195;-78
2022/11/13 10:27:58;;;;;;;4.90;3.25;;;;;17.20;102170.00;;;;5064809;28;20199;-77
2022/11/13 10:30:26;;;;;;;5.93;3.30;;;;;17.30;102165.00;;;;5064600;28;20191;-77
2022/11/13 10:32:54;;;;;;;4.53;2.97;;;;;17.40;102170.00;;;;5065649;28;20654;-78
2022/11/13 10:35:44;;;;;;;4.03;2.78;;;;;17.50;102166.00;;;;5047388;28;20227;-77
2022/11/13 10:38:21;;;;;;;3.88;2.83;;;;;17.60;102169.00;;;;5048262;28;20602;-77
2022/11/13 10:40:49;;;;;;;4.43;3.22;;;;;17.80;102166.00;;;;5059976;28;20203;-77
2022/11/13 10:43:18;;;;;;;4.93;3.25;;;;;17.80;102169.00;;;;5067999;28;20230;-77
2022/11/13 10:45:55;;;;;;;4.03;3.08;;;;;17.90;102168.00;;;;5065847;28;20221;-77
2022/11/13 10:48:25;;;;;;;4.53;3.28;;;;;18.00;102164.00;;;;5068558;28;20248;-77
2022/11/13 10:51:01;;;;;;;8.02;3.55;;;;;18.10;102154.00;;;;5068707;28;20198;-77
2022/11/13 10:53:39;;;;;;;4.63;3.70;;;;;18.10;102152.00;;;;5068579;28;20201;-77
2022/11/13 10:56:21;;;;;;;4.03;3.40;;;;;18.20;102145.00;;;;5067968;28;20252;-77
2022/11/13 10:59:00;;;;;;;5.78;3.47;;;;;18.30;102145.00;;;;5048113;28;20245;-77
2022/11/13 11:01:28;;;;;;;4.43;3.58;;;;;18.50;102139.00;;;;5062618;28;20206;-77
2022/11/13 11:03:55;;;;;;;4.53;3.28;;;;;18.60;102145.00;;;;5053516;28;20218;-77
2022/11/13 11:06:33;;;;;;;4.10;3.35;;;;;18.60;102132.00;;;;5049885;28;20200;-77
2022/11/13 11:09:14;;;;;;;3.05;2.72;;;;;18.70;102131.00;;;;5048048;28;20240;-77
2022/11/13 11:14:33;;;;;;;3.22;2.78;;;;;18.90;102120.00;;;;5048423;28;20773;-77
2022/11/13 11:17:04;;;;;;;4.95;3.00;;;;;19.00;102112.00;;;;5047708;28;20207;-77
2022/11/13 11:19:37;;;;;;;4.97;3.33;;;;;19.10;102110.00;;;;5053679;28;20210;-77
2022/11/13 11:22:12;;;;;;;4.90;2.63;;;;;19.20;102102.00;;;;5049701;28;20672;-77
2022/11/13 11:24:50;;;;;;;3.53;2.63;;;;;19.30;102099.00;;;;5057823;28;20198;-77
2022/11/13 11:27:26;;;;;;;3.42;2.83;;;;;19.40;102088.00;;;;5052336;28;20227;-77
2022/11/13 11:30:00;;;;;;;3.55;2.85;;;;;19.50;102093.00;;;;5047974;28;20210;-77
2022/11/13 11:32:33;;;;;;;8.68;2.72;;;;;19.60;102083.00;;;;5057463;28;20279;-77
2022/11/13 11:35:11;;;;;;;3.05;2.58;;;;;19.70;102085.00;;;;5051512;28;20224;-77
2022/11/13 11:37:47;;;;;;;2.85;2.30;;;;;19.80;102080.00;;;;5049194;28;20203;-77
2022/11/13 11:40:25;;;;;;;3.97;2.80;;;;;19.80;102074.00;;;;5067639;28;20209;-77
2022/11/13 11:42:58;;;;;;;3.55;2.90;;;;;20.00;102076.00;;;;5059853;28;21121;-77
2022/11/13 11:45:29;;;;;;;3.72;2.72;;;;;20.10;102077.00;;;;5067839;28;20576;-77
2022/11/13 11:47:58;;;;;;;5.38;3.05;;;;;20.20;102069.00;;;;5063066;28;20211;-77
2022/11/13 11:50:34;;;;;;;4.72;2.50;;;;;20.30;102072.00;;;;5048124;28;20208;-77
2022/11/13 11:53:06;;;;;;;2.88;2.58;;;;;20.40;102067.00;;;;5047726;28;20207;-77
2022/11/13 11:56:00;;;;;;;3.55;2.47;;;;;20.40;102068.00;;;;5047872;28;21067;-77
2022/11/13 11:58:45;;;;;;;3.60;2.55;;;;;20.60;102071.00;;;;5047107;28;20196;-77
2022/11/13 12:01:19;;;;;;;4.70;2.78;;;;;20.70;102068.00;;;;5047688;28;20207;-78
2022/11/13 12:04:12;;;;;;;2.97;2.58;;;;;20.70;102062.00;;;;5051450;28;20219;-77
2022/11/13 12:06:51;;;;;;;3.90;2.65;;;;;20.80;102057.00;;;;5048287;28;20239;-77
2022/11/13 12:09:24;;;;;;;3.40;2.35;;;;;20.90;102058.00;;;;5047399;28;20206;-77
2022/11/13 12:12:02;;;;;;;2.80;2.03;;;;;21.00;102052.00;;;;5050552;28;20204;-77
2022/11/13 12:14:38;;;;;;;2.55;1.98;;;;;21.10;102051.00;;;;5051524;28;20214;-77
2022/11/13 12:17:20;;;;;;;4.07;2.80;;;;;21.10;102050.00;;;;5071591;28;20202;-77
2022/11/13 12:19:58;;;;;;;3.67;2.75;;;;;21.20;102048.00;;;;5071657;28;20205;-77
2022/11/13 12:22:38;;;;;;;2.70;2.50;;;;;21.20;102041.00;;;;5070264;28;20198;-77
2022/11/13 12:25:18;;;;;;;3.10;2.72;;;;;21.30;102041.00;;;;5071439;28;20195;-77